Time;durP1;ratioP1;P1;durP2;ratioP2;P2;SDS_P1;SDS_P2;PMS_P1;PMS_P2;Temp;Humidity;BMP_temperature;BMP_pressure;BME280_temperature;BME280_humidity;BME280_pressure;Samples;Min_cycle;Max_cycle;Signal;HPM_P1;HPM_P2
2022/01/11 00:00:13;;;;;;;9.45;5.22;;;;;9.00;102825.00;;;;5013157;28;20193;-78
2022/01/11 00:02:44;;;;;;;8.07;5.35;;;;;9.00;102821.00;;;;5018362;28;20208;-78
2022/01/11 00:05:19;;;;;;;10.48;6.22;;;;;9.00;102814.00;;;;5025495;28;20298;-78
2022/01/11 00:07:48;;;;;;;10.93;5.00;;;;;9.00;102810.00;;;;5023739;28;20573;-78
2022/01/11 00:10:24;;;;;;;9.13;5.18;;;;;9.00;102807.00;;;;5028955;28;20196;-78
2022/01/11 00:12:51;;;;;;;9.75;5.90;;;;;9.00;102811.00;;;;5016491;28;20200;-77
2022/01/11 00:15:19;;;;;;;9.27;5.88;;;;;9.00;102814.00;;;;5028632;28;20196;-78
2022/01/11 00:17:46;;;;;;;10.45;5.95;;;;;9.00;102814.00;;;;5021299;28;20196;-78
2022/01/11 00:20:15;;;;;;;10.07;5.65;;;;;9.10;102820.00;;;;5027368;28;20572;-78
2022/01/11 00:24:26;;;;;;;10.50;6.43;;;;;9.10;102816.00;;;;5023544;28;20692;-78
2022/01/11 00:25:32;;;;;;;11.75;6.35;;;;;9.10;102820.00;;;;5008477;28;20255;-78
2022/01/11 00:28:00;;;;;;;10.15;6.00;;;;;9.10;102817.00;;;;5010894;28;20280;-78
2022/01/11 00:30:31;;;;;;;10.23;6.10;;;;;9.10;102812.00;;;;5013111;28;20212;-78
2022/01/11 00:33:00;;;;;;;10.02;6.32;;;;;9.10;102812.00;;;;5018259;28;20196;-78
2022/01/11 00:35:38;;;;;;;14.00;6.22;;;;;9.10;102817.00;;;;5010251;28;20536;-78
2022/01/11 00:38:06;;;;;;;11.60;6.80;;;;;9.10;102821.00;;;;5022142;28;20654;-78
2022/01/11 00:40:35;;;;;;;11.38;6.10;;;;;9.10;102815.00;;;;5027884;28;20207;-78
2022/01/11 00:43:03;;;;;;;13.55;7.30;;;;;9.10;102818.00;;;;5028139;28;20226;-77
2022/01/11 00:45:31;;;;;;;11.27;6.82;;;;;9.10;102821.00;;;;5023809;28;20216;-78
2022/01/11 00:47:58;;;;;;;11.07;6.55;;;;;9.10;102825.00;;;;5021018;28;20200;-78
2022/01/11 00:50:26;;;;;;;11.98;6.28;;;;;9.10;102824.00;;;;5021419;28;20298;-78
2022/01/11 00:52:53;;;;;;;11.55;5.90;;;;;9.10;102831.00;;;;5024375;28;20227;-78
2022/01/11 00:55:20;;;;;;;9.98;5.82;;;;;9.00;102831.00;;;;5027325;28;20215;-78
2022/01/11 00:57:49;;;;;;;13.70;6.65;;;;;9.00;102841.00;;;;5025624;28;20204;-79
2022/01/11 01:00:16;;;;;;;10.15;5.93;;;;;9.00;102841.00;;;;5007993;28;20645;-78
2022/01/11 01:02:44;;;;;;;11.90;6.35;;;;;9.00;102838.00;;;;5017282;28;20208;-78
2022/01/11 01:05:11;;;;;;;11.10;6.20;;;;;9.00;102834.00;;;;5013409;28;20201;-78
2022/01/11 01:07:39;;;;;;;10.93;5.93;;;;;9.00;102836.00;;;;5018659;28;20247;-78
2022/01/11 01:10:14;;;;;;;12.10;6.70;;;;;9.00;102835.00;;;;5007515;28;20648;-78
2022/01/11 01:12:42;;;;;;;11.90;6.43;;;;;9.00;102832.00;;;;5023713;28;20200;-78
2022/01/11 01:15:11;;;;;;;10.80;6.43;;;;;8.90;102825.00;;;;5022272;28;20204;-78
2022/01/11 01:17:38;;;;;;;15.63;6.13;;;;;9.00;102823.00;;;;5022474;28;20211;-78
2022/01/11 01:20:07;;;;;;;12.32;6.82;;;;;8.90;102813.00;;;;5016342;28;20225;-78
2022/01/11 01:22:34;;;;;;;10.27;5.60;;;;;8.90;102813.00;;;;5011681;28;20212;-77
2022/01/11 01:25:02;;;;;;;12.35;6.40;;;;;8.90;102820.00;;;;5024485;28;20189;-78
2022/01/11 01:27:29;;;;;;;17.48;6.40;;;;;8.90;102819.00;;;;5015333;28;20221;-77
2022/01/11 01:29:56;;;;;;;10.77;6.28;;;;;8.90;102806.00;;;;5023917;28;20196;-78
2022/01/11 01:32:25;;;;;;;10.35;5.70;;;;;8.90;102814.00;;;;5031120;28;20617;-78
2022/01/11 01:34:55;;;;;;;10.73;6.25;;;;;8.90;102807.00;;;;5030019;28;20200;-78
2022/01/11 01:37:22;;;;;;;8.43;5.43;;;;;8.80;102812.00;;;;5032029;28;20196;-77
2022/01/11 01:39:49;;;;;;;10.38;5.82;;;;;8.80;102821.00;;;;5027750;28;20204;-78
2022/01/11 01:42:22;;;;;;;10.55;6.05;;;;;8.80;102818.00;;;;5030159;28;20204;-78
2022/01/11 01:44:50;;;;;;;9.75;5.53;;;;;8.70;102824.00;;;;5030353;28;20246;-78
2022/01/11 01:47:18;;;;;;;9.73;5.40;;;;;8.70;102833.00;;;;5028648;28;20577;-78
2022/01/11 01:49:46;;;;;;;12.15;7.25;;;;;8.70;102830.00;;;;5016824;28;20200;-78
2022/01/11 01:52:15;;;;;;;9.73;5.85;;;;;8.70;102833.00;;;;5016022;28;20562;-78
2022/01/11 01:54:43;;;;;;;11.70;6.18;;;;;8.70;102835.00;;;;5011019;28;20216;-78
2022/01/11 01:57:11;;;;;;;11.90;6.03;;;;;8.70;102840.00;;;;5015203;28;20651;-78
2022/01/11 01:59:38;;;;;;;10.95;6.35;;;;;8.70;102831.00;;;;5020439;28;20197;-78
2022/01/11 02:02:08;;;;;;;12.02;6.40;;;;;8.70;102835.00;;;;5025205;28;20193;-78
2022/01/11 02:04:35;;;;;;;9.73;5.78;;;;;8.70;102825.00;;;;5016397;28;20188;-78
2022/01/11 02:07:04;;;;;;;12.18;6.18;;;;;8.70;102829.00;;;;5018735;28;20225;-77
2022/01/11 02:09:32;;;;;;;10.98;6.07;;;;;8.70;102839.00;;;;5030279;28;20299;-77
2022/01/11 02:11:59;;;;;;;11.32;6.47;;;;;8.70;102845.00;;;;5013109;28;20671;-78
2022/01/11 02:14:27;;;;;;;11.80;6.25;;;;;8.70;102851.00;;;;5011356;28;20749;-78
2022/01/11 02:16:56;;;;;;;12.80;7.05;;;;;8.60;102850.00;;;;5013326;28;20291;-78
2022/01/11 02:19:23;;;;;;;12.05;7.03;;;;;8.60;102855.00;;;;5026571;28;20609;-78
2022/01/11 02:21:52;;;;;;;10.80;5.45;;;;;8.60;102854.00;;;;5016836;28;20204;-78
2022/01/11 02:24:19;;;;;;;12.77;6.45;;;;;8.60;102869.00;;;;5030930;28;20196;-78
2022/01/11 02:26:47;;;;;;;9.38;5.57;;;;;8.60;102868.00;;;;5029688;28;20217;-77
2022/01/11 02:29:14;;;;;;;9.93;5.72;;;;;8.60;102862.00;;;;5016531;28;20197;-78
2022/01/11 02:31:41;;;;;;;9.50;5.60;;;;;8.60;102865.00;;;;5024228;28;20724;-78
2022/01/11 02:34:08;;;;;;;10.45;6.00;;;;;8.60;102870.00;;;;5017716;28;20440;-78
2022/01/11 02:36:37;;;;;;;11.90;6.00;;;;;8.60;102874.00;;;;5030256;28;20200;-78
2022/01/11 02:39:06;;;;;;;11.18;5.97;;;;;8.60;102885.00;;;;5016371;28;20212;-78
2022/01/11 02:41:33;;;;;;;11.57;6.07;;;;;8.60;102879.00;;;;5011305;28;20197;-78
2022/01/11 02:44:01;;;;;;;10.45;6.07;;;;;8.60;102880.00;;;;5019533;28;20208;-78
2022/01/11 02:46:29;;;;;;;12.63;6.55;;;;;8.60;102886.00;;;;5019965;28;20236;-78
2022/01/11 02:48:57;;;;;;;12.20;7.30;;;;;8.50;102891.00;;;;5026479;28;20200;-78
2022/01/11 02:51:25;;;;;;;11.93;7.25;;;;;8.60;102883.00;;;;5020716;28;20208;-76
2022/01/11 02:53:54;;;;;;;13.88;6.78;;;;;8.50;102880.00;;;;5019463;28;20204;-78
2022/01/11 02:56:24;;;;;;;11.48;6.65;;;;;8.50;102885.00;;;;5030642;28;20200;-78
2022/01/11 02:58:51;;;;;;;11.65;6.60;;;;;8.50;102876.00;;;;5011276;28;20197;-77
2022/01/11 03:01:19;;;;;;;13.65;7.88;;;;;8.50;102883.00;;;;5018009;28;20200;-77
2022/01/11 03:03:47;;;;;;;13.07;6.47;;;;;8.50;102882.00;;;;5013595;28;20209;-78
2022/01/11 03:06:14;;;;;;;11.35;6.18;;;;;8.50;102884.00;;;;5024200;28;20586;-78
2022/01/11 03:08:43;;;;;;;12.23;7.25;;;;;8.50;102881.00;;;;5017240;28;20724;-78
2022/01/11 03:11:11;;;;;;;11.45;6.53;;;;;8.50;102883.00;;;;5028585;28;20671;-78
2022/01/11 03:13:43;;;;;;;13.40;7.22;;;;;8.50;102877.00;;;;5013631;28;20204;-77
2022/01/11 03:16:11;;;;;;;11.10;6.28;;;;;8.40;102871.00;;;;5026126;28;20207;-78
2022/01/11 03:18:38;;;;;;;11.80;6.82;;;;;8.40;102869.00;;;;5027741;28;20232;-78
2022/01/11 03:21:06;;;;;;;13.82;6.97;;;;;8.40;102875.00;;;;5018854;28;20209;-78
2022/01/11 03:23:33;;;;;;;10.57;6.28;;;;;8.40;102879.00;;;;5020658;28;20291;-78
2022/01/11 03:26:02;;;;;;;13.05;7.20;;;;;8.40;102879.00;;;;5029764;28;20207;-77
2022/01/11 03:28:30;;;;;;;12.50;6.60;;;;;8.40;102868.00;;;;5015178;28;20577;-77
2022/01/11 03:31:00;;;;;;;11.50;6.32;;;;;8.40;102876.00;;;;5010314;28;20263;-77
2022/01/11 03:33:28;;;;;;;12.38;6.75;;;;;8.40;102881.00;;;;5025670;28;20211;-78
2022/01/11 03:35:55;;;;;;;12.98;6.85;;;;;8.40;102876.00;;;;5025792;28;20296;-77
2022/01/11 03:38:23;;;;;;;14.10;8.05;;;;;8.40;102870.00;;;;5012382;28;20585;-78
2022/01/11 03:40:52;;;;;;;12.88;6.97;;;;;8.40;102876.00;;;;5010095;28;20209;-78
2022/01/11 03:43:22;;;;;;;13.07;6.88;;;;;8.40;102883.00;;;;5023597;28;20654;-77
2022/01/11 03:45:50;;;;;;;12.05;6.13;;;;;8.40;102889.00;;;;5029314;28;20203;-78
2022/01/11 03:48:19;;;;;;;12.40;6.95;;;;;8.40;102872.00;;;;5022073;28;20323;-77
2022/01/11 03:50:52;;;;;;;13.73;7.15;;;;;8.40;102873.00;;;;5017092;28;20563;-78
2022/01/11 03:53:22;;;;;;;12.95;7.15;;;;;8.40;102876.00;;;;5019746;28;20729;-79
2022/01/11 03:56:10;;;;;;;12.85;7.05;;;;;8.40;102876.00;;;;5014739;28;20668;-79
2022/01/11 03:58:38;;;;;;;13.15;7.10;;;;;8.40;102872.00;;;;5013911;28;20196;-78
2022/01/11 04:01:05;;;;;;;13.82;7.40;;;;;8.30;102875.00;;;;5018931;28;20208;-79
2022/01/11 04:03:34;;;;;;;14.40;7.38;;;;;8.30;102877.00;;;;5027245;28;20200;-78
2022/01/11 04:06:01;;;;;;;15.32;6.82;;;;;8.30;102882.00;;;;5028892;28;20203;-78
2022/01/11 04:08:28;;;;;;;15.25;6.78;;;;;8.40;102877.00;;;;5012115;28;20271;-78
2022/01/11 04:10:56;;;;;;;12.93;6.82;;;;;8.40;102875.00;;;;5015182;28;20669;-78
2022/01/11 04:13:23;;;;;;;13.77;7.68;;;;;8.40;102876.00;;;;5027532;28;20196;-78
2022/01/11 04:15:50;;;;;;;17.02;8.15;;;;;8.40;102876.00;;;;5012156;28;20283;-78
2022/01/11 04:18:17;;;;;;;15.13;7.30;;;;;8.40;102877.00;;;;5027181;28;20232;-78
2022/01/11 04:20:46;;;;;;;16.40;8.23;;;;;8.40;102879.00;;;;5027985;28;20208;-77
2022/01/11 04:23:13;;;;;;;14.20;7.28;;;;;8.40;102880.00;;;;5012482;28;20204;-78
2022/01/11 04:25:41;;;;;;;16.33;8.32;;;;;8.40;102877.00;;;;5016569;28;20194;-78
2022/01/11 04:28:08;;;;;;;15.90;7.75;;;;;8.40;102882.00;;;;5025867;28;20233;-78
2022/01/11 04:30:37;;;;;;;17.02;8.82;;;;;8.40;102873.00;;;;5008663;28;20204;-78
2022/01/11 04:33:05;;;;;;;19.17;9.38;;;;;8.40;102883.00;;;;5013280;28;20196;-78
2022/01/11 04:35:33;;;;;;;16.05;7.65;;;;;8.40;102886.00;;;;5028503;28;20287;-78
2022/01/11 04:38:01;;;;;;;15.65;8.02;;;;;8.40;102883.00;;;;5028880;28;20639;-78
2022/01/11 04:40:28;;;;;;;12.88;7.03;;;;;8.40;102882.00;;;;5012647;28;20655;-78
2022/01/11 04:42:56;;;;;;;16.63;8.48;;;;;8.40;102889.00;;;;5027822;28;20196;-78
2022/01/11 04:45:23;;;;;;;16.30;9.25;;;;;8.50;102887.00;;;;5028087;28;20208;-78
2022/01/11 04:47:56;;;;;;;17.10;8.32;;;;;8.50;102887.00;;;;5026573;28;20220;-78
2022/01/11 04:50:24;;;;;;;17.42;8.52;;;;;8.40;102880.00;;;;5009216;28;20734;-78
2022/01/11 04:52:52;;;;;;;18.48;8.68;;;;;8.50;102895.00;;;;5028326;28;20294;-78
2022/01/11 04:55:21;;;;;;;15.45;8.63;;;;;8.50;102889.00;;;;5026361;28;20683;-78
2022/01/11 04:57:48;;;;;;;15.73;7.85;;;;;8.50;102897.00;;;;5027742;28;20452;-78
2022/01/11 05:00:18;;;;;;;17.77;8.63;;;;;8.50;102899.00;;;;5025472;28;20200;-78
2022/01/11 05:02:46;;;;;;;15.23;7.60;;;;;8.50;102901.00;;;;5022745;28;20208;-78
2022/01/11 05:05:15;;;;;;;17.52;8.75;;;;;8.50;102902.00;;;;5029369;28;20291;-78
2022/01/11 05:07:42;;;;;;;20.10;9.45;;;;;8.50;102902.00;;;;5018842;28;20212;-79
2022/01/11 05:10:10;;;;;;;17.27;8.13;;;;;8.50;102897.00;;;;5016177;28;20227;-78
2022/01/11 05:12:39;;;;;;;15.85;9.05;;;;;8.50;102899.00;;;;5021147;28;20197;-78
2022/01/11 05:15:07;;;;;;;17.23;8.25;;;;;8.50;102897.00;;;;5013319;28;20647;-78
2022/01/11 05:17:35;;;;;;;17.90;8.80;;;;;8.60;102905.00;;;;5029329;28;20590;-79
2022/01/11 05:20:02;;;;;;;17.00;8.48;;;;;8.60;102905.00;;;;5021311;28;20240;-78
2022/01/11 05:22:29;;;;;;;15.90;8.65;;;;;8.60;102919.00;;;;5019433;28;20569;-78
2022/01/11 05:24:57;;;;;;;17.73;8.68;;;;;8.60;102925.00;;;;5015505;28;20188;-79
2022/01/11 05:27:24;;;;;;;16.40;8.68;;;;;8.60;102927.00;;;;5031577;28;20235;-78
2022/01/11 05:29:52;;;;;;;17.30;9.05;;;;;8.60;102917.00;;;;5028661;28;20206;-79
2022/01/11 05:32:20;;;;;;;15.50;7.32;;;;;8.60;102917.00;;;;5028746;28;20299;-79
2022/01/11 05:34:47;;;;;;;15.57;8.52;;;;;8.60;102925.00;;;;5027051;28;20199;-79
2022/01/11 05:37:14;;;;;;;14.43;8.20;;;;;8.60;102925.00;;;;5026056;28;20204;-79
2022/01/11 05:39:42;;;;;;;18.17;8.82;;;;;8.60;102925.00;;;;5029404;28;20200;-79
2022/01/11 05:42:09;;;;;;;16.50;8.95;;;;;8.60;102924.00;;;;5012545;28;20607;-78
2022/01/11 05:44:37;;;;;;;15.23;7.82;;;;;8.60;102933.00;;;;5011726;28;20647;-79
2022/01/11 05:47:06;;;;;;;18.30;9.30;;;;;8.60;102926.00;;;;5012194;28;20224;-79
2022/01/11 05:49:33;;;;;;;16.35;7.97;;;;;8.60;102931.00;;;;5024231;28;20211;-79
2022/01/11 05:52:01;;;;;;;20.20;9.55;;;;;8.60;102934.00;;;;5021499;28;20193;-79
2022/01/11 05:54:28;;;;;;;14.93;7.70;;;;;8.60;102937.00;;;;5013340;28;20219;-79
2022/01/11 05:56:55;;;;;;;17.45;8.95;;;;;8.60;102940.00;;;;5011438;28;20197;-78
2022/01/11 05:59:22;;;;;;;16.13;7.78;;;;;8.60;102952.00;;;;5011197;28;20209;-78
2022/01/11 06:01:50;;;;;;;15.98;8.35;;;;;8.60;102953.00;;;;5019790;28;20211;-78
2022/01/11 06:04:18;;;;;;;16.15;7.53;;;;;8.60;102948.00;;;;5029097;28;20200;-81
2022/01/11 06:06:46;;;;;;;15.88;7.55;;;;;8.60;102939.00;;;;5017258;28;20205;-79
2022/01/11 06:09:13;;;;;;;14.38;7.00;;;;;8.60;102958.00;;;;5018274;28;20225;-77
2022/01/11 06:11:40;;;;;;;15.20;7.45;;;;;8.60;102959.00;;;;5019712;28;20254;-78
2022/01/11 06:14:07;;;;;;;15.55;7.60;;;;;8.60;102954.00;;;;5021622;28;21016;-78
2022/01/11 06:16:35;;;;;;;16.70;7.90;;;;;8.60;102957.00;;;;5026722;28;20215;-77
2022/01/11 06:19:02;;;;;;;14.80;7.45;;;;;8.60;102947.00;;;;5014260;28;20225;-77
2022/01/11 06:21:30;;;;;;;15.80;7.72;;;;;8.60;102945.00;;;;5014753;28;20236;-78
2022/01/11 06:23:59;;;;;;;15.38;8.20;;;;;8.70;102950.00;;;;5019502;28;20203;-78
2022/01/11 06:26:26;;;;;;;15.02;7.70;;;;;8.70;102947.00;;;;5012107;28;20228;-78
2022/01/11 06:28:53;;;;;;;16.58;8.30;;;;;8.70;102952.00;;;;5011824;28;20232;-78
2022/01/11 06:31:20;;;;;;;18.42;8.85;;;;;8.70;102948.00;;;;5013127;28;20536;-78
2022/01/11 06:33:47;;;;;;;21.83;8.50;;;;;8.60;102946.00;;;;5010697;28;20204;-78
2022/01/11 06:36:15;;;;;;;12.80;6.82;;;;;8.60;102952.00;;;;5010311;28;20204;-78
2022/01/11 06:38:44;;;;;;;15.25;8.18;;;;;8.60;102950.00;;;;5010742;28;20595;-78
2022/01/11 06:41:11;;;;;;;17.27;8.68;;;;;8.60;102952.00;;;;5023213;28;20215;-77
2022/01/11 06:43:40;;;;;;;17.80;8.75;;;;;8.60;102952.00;;;;5011091;28;20205;-77
2022/01/11 06:46:07;;;;;;;14.80;7.70;;;;;8.60;102959.00;;;;5010799;28;20208;-78
2022/01/11 06:48:35;;;;;;;18.48;8.40;;;;;8.60;102953.00;;;;5019530;28;20259;-78
2022/01/11 06:51:03;;;;;;;14.30;8.18;;;;;8.60;102961.00;;;;5026268;28;20220;-77
2022/01/11 06:53:31;;;;;;;17.95;7.45;;;;;8.60;102974.00;;;;5024346;28;20205;-77
2022/01/11 06:56:00;;;;;;;15.10;8.45;;;;;8.60;102977.00;;;;5026859;28;20732;-79
2022/01/11 06:58:27;;;;;;;14.10;7.70;;;;;8.60;102989.00;;;;5028012;28;20255;-79
2022/01/11 07:00:54;;;;;;;14.10;8.07;;;;;8.50;102979.00;;;;5027209;28;20204;-78
2022/01/11 07:03:22;;;;;;;15.57;8.75;;;;;8.60;102985.00;;;;5028284;28;20204;-78
2022/01/11 07:05:49;;;;;;;15.90;8.10;;;;;8.60;102984.00;;;;5017882;28;20667;-77
2022/01/11 07:08:16;;;;;;;17.60;8.63;;;;;8.60;102987.00;;;;5016680;28;20239;-77
2022/01/11 07:10:43;;;;;;;17.42;9.05;;;;;8.50;102979.00;;;;5018122;28;20267;-77
2022/01/11 07:13:12;;;;;;;16.45;8.10;;;;;8.50;102982.00;;;;5021753;28;20201;-77
2022/01/11 07:15:39;;;;;;;17.88;8.95;;;;;8.50;102987.00;;;;5014557;28;20207;-77
2022/01/11 07:18:09;;;;;;;16.13;9.50;;;;;8.50;102986.00;;;;5015442;28;20201;-77
2022/01/11 07:20:38;;;;;;;14.32;8.35;;;;;8.50;102987.00;;;;5023041;28;20792;-76
2022/01/11 07:23:06;;;;;;;16.48;8.52;;;;;8.50;102991.00;;;;5016377;28;20574;-77
2022/01/11 07:25:33;;;;;;;14.20;8.23;;;;;8.50;102992.00;;;;5015337;28;20216;-77
2022/01/11 07:28:01;;;;;;;18.67;9.85;;;;;8.50;102995.00;;;;5009371;28;20217;-77
2022/01/11 07:30:29;;;;;;;16.55;9.00;;;;;8.40;102988.00;;;;5022497;28;20208;-77
2022/01/11 07:32:57;;;;;;;18.48;9.07;;;;;8.40;102996.00;;;;5022905;28;20208;-77
2022/01/11 07:35:24;;;;;;;14.20;7.03;;;;;8.40;103001.00;;;;5018104;28;20197;-77
2022/01/11 07:37:51;;;;;;;15.65;8.35;;;;;8.40;102992.00;;;;5019537;28;20369;-77
2022/01/11 07:40:19;;;;;;;14.73;8.52;;;;;8.40;102989.00;;;;5020457;28;20394;-77
2022/01/11 07:42:48;;;;;;;16.75;9.18;;;;;8.40;102996.00;;;;5022169;28;20204;-77
2022/01/11 07:45:16;;;;;;;14.25;8.23;;;;;8.40;103008.00;;;;5022944;28;20204;-77
2022/01/11 07:47:45;;;;;;;16.70;8.95;;;;;8.40;103014.00;;;;5019160;28;20232;-77
2022/01/11 07:50:13;;;;;;;17.50;8.05;;;;;8.40;103015.00;;;;5019315;28;20725;-77
2022/01/11 07:52:41;;;;;;;14.45;8.02;;;;;8.30;103016.00;;;;5023404;28;20205;-78
2022/01/11 07:55:08;;;;;;;17.13;9.15;;;;;8.30;103019.00;;;;5017209;28;20204;-78
2022/01/11 07:57:36;;;;;;;18.90;9.13;;;;;8.30;103026.00;;;;5016011;28;20192;-78
2022/01/11 08:00:07;;;;;;;18.33;9.40;;;;;8.30;103025.00;;;;5021983;28;20232;-77
2022/01/11 08:02:34;;;;;;;18.80;8.95;;;;;8.30;103018.00;;;;5014578;28;20208;-78
2022/01/11 08:05:03;;;;;;;16.63;7.75;;;;;8.30;103016.00;;;;5022141;28;20200;-79
2022/01/11 08:07:31;;;;;;;18.10;8.50;;;;;8.30;103020.00;;;;5009615;28;20208;-78
2022/01/11 08:09:58;;;;;;;15.65;8.52;;;;;8.30;103020.00;;;;5012684;28;20220;-79
2022/01/11 08:12:25;;;;;;;15.13;8.15;;;;;8.30;103016.00;;;;5010227;28;20197;-79
2022/01/11 08:14:52;;;;;;;15.93;8.85;;;;;8.30;103019.00;;;;5018018;28;20582;-78
2022/01/11 08:17:20;;;;;;;15.20;8.55;;;;;8.30;103025.00;;;;5016298;28;20263;-79
2022/01/11 08:19:47;;;;;;;15.77;8.25;;;;;8.30;103033.00;;;;5010106;28;21998;-79
2022/01/11 08:22:16;;;;;;;14.10;7.65;;;;;8.30;103019.00;;;;5014363;28;20204;-79
2022/01/11 08:24:44;;;;;;;17.67;9.07;;;;;8.40;103023.00;;;;5025454;28;20208;-79
2022/01/11 08:27:12;;;;;;;16.10;8.50;;;;;8.40;103018.00;;;;5019438;28;20291;-79
2022/01/11 08:29:42;;;;;;;15.43;9.40;;;;;8.40;103020.00;;;;5012142;28;20232;-80
2022/01/11 08:32:09;;;;;;;16.70;9.05;;;;;8.40;103024.00;;;;5009272;28;20204;-80
2022/01/11 08:34:36;;;;;;;16.17;8.32;;;;;8.40;103028.00;;;;5018339;28;20272;-79
2022/01/11 08:37:04;;;;;;;16.38;7.63;;;;;8.40;103023.00;;;;5010710;28;20196;-79
2022/01/11 08:39:34;;;;;;;16.88;8.80;;;;;8.30;103024.00;;;;5008852;28;20197;-79
2022/01/11 08:42:02;;;;;;;19.23;10.38;;;;;8.30;103028.00;;;;5010240;28;20201;-79
2022/01/11 08:44:29;;;;;;;17.45;8.80;;;;;8.30;103026.00;;;;5015470;28;20231;-79
2022/01/11 08:46:57;;;;;;;16.00;8.75;;;;;8.30;103030.00;;;;5026736;28;20207;-79
2022/01/11 08:49:24;;;;;;;18.83;10.05;;;;;8.30;103035.00;;;;5022035;28;20224;-80
2022/01/11 08:51:51;;;;;;;16.55;9.18;;;;;8.30;103038.00;;;;5017700;28;20196;-79
2022/01/11 08:54:24;;;;;;;17.80;9.75;;;;;8.30;103039.00;;;;5020752;28;20201;-80
2022/01/11 08:56:54;;;;;;;15.55;8.00;;;;;8.30;103046.00;;;;5021520;28;20258;-80
2022/01/11 08:59:21;;;;;;;15.25;8.10;;;;;8.30;103047.00;;;;5022365;28;20199;-80
2022/01/11 09:01:49;;;;;;;13.20;7.93;;;;;8.30;103047.00;;;;5018929;28;20189;-80
2022/01/11 09:04:17;;;;;;;13.95;7.60;;;;;8.30;103052.00;;;;5010171;28;20251;-80
2022/01/11 09:06:44;;;;;;;14.32;7.53;;;;;8.30;103051.00;;;;5022254;28;20231;-80
2022/01/11 09:09:12;;;;;;;17.40;8.35;;;;;8.30;103050.00;;;;5011416;28;20240;-80
2022/01/11 09:11:41;;;;;;;15.88;8.45;;;;;8.30;103050.00;;;;5016172;28;20208;-79
2022/01/11 09:14:10;;;;;;;17.40;8.07;;;;;8.30;103044.00;;;;5019243;28;20251;-80
2022/01/11 09:16:38;;;;;;;15.43;8.27;;;;;8.40;103044.00;;;;5021110;28;20193;-79
2022/01/11 09:19:06;;;;;;;14.20;7.40;;;;;8.40;103053.00;;;;5009111;28;20233;-79
2022/01/11 09:21:34;;;;;;;12.70;6.95;;;;;8.40;103052.00;;;;5010983;28;20235;-79
2022/01/11 09:24:02;;;;;;;14.65;7.57;;;;;8.40;103054.00;;;;5008114;28;20609;-80
2022/01/11 09:26:30;;;;;;;16.25;8.57;;;;;8.40;103057.00;;;;5008985;28;20197;-80
2022/01/11 09:28:57;;;;;;;13.80;8.23;;;;;8.40;103053.00;;;;5007754;28;20302;-79
2022/01/11 09:31:26;;;;;;;13.68;7.35;;;;;8.40;103053.00;;;;5010203;28;20679;-79
2022/01/11 09:33:53;;;;;;;14.52;8.27;;;;;8.40;103057.00;;;;5012099;28;20259;-79
2022/01/11 09:36:21;;;;;;;13.70;8.07;;;;;8.50;103060.00;;;;5013241;28;20205;-80
2022/01/11 09:38:48;;;;;;;14.93;8.35;;;;;8.50;103060.00;;;;5009372;28;20202;-79
2022/01/11 09:41:15;;;;;;;13.52;8.30;;;;;8.50;103060.00;;;;5011239;28;20205;-79
2022/01/11 09:43:43;;;;;;;16.33;8.02;;;;;8.50;103060.00;;;;5007374;28;20209;-80
2022/01/11 09:46:12;;;;;;;13.13;7.38;;;;;8.60;103066.00;;;;5014591;28;20209;-80
2022/01/11 09:48:41;;;;;;;12.90;7.72;;;;;8.60;103066.00;;;;5014649;28;20217;-80
2022/01/11 09:51:09;;;;;;;16.63;8.15;;;;;8.60;103078.00;;;;5019597;28;20208;-79
2022/01/11 09:53:36;;;;;;;14.73;8.25;;;;;8.60;103069.00;;;;5015420;28;20581;-80
2022/01/11 09:56:05;;;;;;;14.63;7.97;;;;;8.60;103069.00;;;;5020797;28;20205;-80
2022/01/11 09:58:34;;;;;;;13.55;7.70;;;;;8.70;103052.00;;;;5031568;28;20196;-80
2022/01/11 10:01:03;;;;;;;12.68;8.13;;;;;8.70;103056.00;;;;5014342;28;20200;-80
2022/01/11 10:03:30;;;;;;;17.77;7.70;;;;;8.70;103055.00;;;;5017984;28;20203;-79
2022/01/11 10:06:15;;;;;;;16.55;9.30;;;;;8.60;103065.00;;;;5018350;28;20200;-80
2022/01/11 10:08:42;;;;;;;14.77;8.02;;;;;8.80;103068.00;;;;5020341;28;20255;-80
2022/01/11 10:11:09;;;;;;;17.15;8.52;;;;;8.80;103065.00;;;;5021942;28;20253;-80
2022/01/11 10:13:40;;;;;;;13.95;7.43;;;;;8.80;103060.00;;;;5021216;28;20204;-80
2022/01/11 10:16:22;;;;;;;14.98;8.63;;;;;8.80;103069.00;;;;5023073;28;20211;-80
2022/01/11 10:18:51;;;;;;;12.90;7.30;;;;;8.90;103075.00;;;;5015769;28;20235;-80
2022/01/11 10:21:39;;;;;;;15.65;7.85;;;;;8.90;103070.00;;;;5021350;28;20200;-80
2022/01/11 10:24:26;;;;;;;12.90;7.55;;;;;8.90;103074.00;;;;5021197;28;20197;-79
2022/01/11 10:26:56;;;;;;;12.20;7.47;;;;;9.10;103063.00;;;;5014906;28;20267;-79
2022/01/11 10:29:30;;;;;;;10.90;6.47;;;;;9.10;103061.00;;;;5027198;28;20226;-80
2022/01/11 10:32:03;;;;;;;13.40;8.07;;;;;9.20;103061.00;;;;5028474;28;20193;-79
2022/01/11 10:34:33;;;;;;;14.07;7.75;;;;;9.30;103070.00;;;;5027291;28;20205;-80
2022/01/11 10:37:04;;;;;;;11.73;6.22;;;;;9.30;103071.00;;;;5017708;28;20196;-78
2022/01/11 10:39:34;;;;;;;14.27;8.35;;;;;9.40;103072.00;;;;5020910;28;20208;-80
2022/01/11 10:42:02;;;;;;;11.90;7.80;;;;;9.50;103065.00;;;;5020458;28;20205;-80
2022/01/11 10:44:51;;;;;;;11.73;6.57;;;;;9.50;103057.00;;;;5018398;28;20193;-80
2022/01/11 10:47:25;;;;;;;9.20;5.63;;;;;9.60;103073.00;;;;5011102;28;20236;-80
2022/01/11 10:49:54;;;;;;;11.40;7.10;;;;;9.70;103066.00;;;;5014231;28;20232;-80
2022/01/11 10:52:25;;;;;;;11.25;7.07;;;;;9.70;103063.00;;;;5016358;28;20208;-80
2022/01/11 10:54:54;;;;;;;12.48;7.20;;;;;9.80;103064.00;;;;5023494;28;20196;-80
2022/01/11 10:57:24;;;;;;;12.40;6.88;;;;;9.80;103069.00;;;;5016569;28;20215;-80
2022/01/11 11:00:27;;;;;;;13.50;7.75;;;;;9.80;103067.00;;;;5018544;28;20195;-80
2022/01/11 11:03:03;;;;;;;11.95;6.72;;;;;9.90;103072.00;;;;5010596;28;20196;-80
2022/01/11 11:05:36;;;;;;;9.65;6.25;;;;;10.00;103070.00;;;;5015451;28;20204;-80
2022/01/11 11:08:11;;;;;;;14.48;6.75;;;;;10.00;103067.00;;;;5022659;28;20655;-80
2022/01/11 11:10:48;;;;;;;14.15;7.05;;;;;10.10;103071.00;;;;5015451;28;20234;-80
2022/01/11 11:13:27;;;;;;;11.10;7.07;;;;;10.10;103073.00;;;;5015963;28;20201;-80
2022/01/11 11:15:57;;;;;;;12.25;6.72;;;;;10.20;103078.00;;;;5013780;28;20279;-80
2022/01/11 11:18:27;;;;;;;11.35;6.35;;;;;10.30;103083.00;;;;5017320;28;20236;-79
2022/01/11 11:20:55;;;;;;;10.88;6.75;;;;;10.30;103079.00;;;;5018979;28;20192;-80
2022/01/11 11:23:24;;;;;;;12.40;6.70;;;;;10.40;103080.00;;;;5013375;28;20646;-80
2022/01/11 11:25:51;;;;;;;10.48;6.45;;;;;10.40;103078.00;;;;5023216;28;20216;-80
2022/01/11 11:28:21;;;;;;;12.85;7.20;;;;;10.50;103080.00;;;;5017527;28;20292;-80
2022/01/11 11:30:50;;;;;;;12.77;7.03;;;;;10.50;103080.00;;;;5013283;28;20228;-80
2022/01/11 11:33:19;;;;;;;12.05;6.90;;;;;10.50;103074.00;;;;5016099;28;20288;-79
2022/01/11 11:35:49;;;;;;;11.68;6.68;;;;;10.60;103069.00;;;;5020870;28;20205;-80
2022/01/11 11:38:18;;;;;;;13.65;7.68;;;;;10.60;103066.00;;;;5020889;28;20236;-79
2022/01/11 11:40:52;;;;;;;10.80;6.13;;;;;10.60;103063.00;;;;5009694;28;20292;-79
2022/01/11 11:43:21;;;;;;;11.70;6.30;;;;;10.70;103062.00;;;;5012800;28;20205;-80
2022/01/11 11:45:48;;;;;;;9.60;6.32;;;;;10.70;103065.00;;;;5019404;28;20189;-79
2022/01/11 11:48:17;;;;;;;11.93;6.05;;;;;10.70;103064.00;;;;5015125;28;20209;-79
2022/01/11 11:50:51;;;;;;;10.00;5.78;;;;;10.70;103070.00;;;;5012382;28;20225;-79
2022/01/11 11:53:24;;;;;;;9.05;6.15;;;;;10.80;103072.00;;;;5014223;28;20200;-79
2022/01/11 11:56:12;;;;;;;8.77;5.82;;;;;10.80;103076.00;;;;5021660;28;20643;-80
2022/01/11 11:58:42;;;;;;;9.27;6.15;;;;;10.90;103089.00;;;;5011639;28;20200;-79
2022/01/11 12:01:31;;;;;;;9.23;5.55;;;;;10.80;103091.00;;;;5013365;28;20468;-78
2022/01/11 12:03:58;;;;;;;10.40;6.00;;;;;10.90;103075.00;;;;5021161;28;20288;-78
2022/01/11 12:06:28;;;;;;;11.48;5.95;;;;;10.90;103084.00;;;;5011616;28;20201;-78
2022/01/11 12:09:03;;;;;;;9.52;6.15;;;;;10.90;103083.00;;;;5015391;28;20691;-78
2022/01/11 12:11:38;;;;;;;10.02;5.85;;;;;10.90;103080.00;;;;5011029;28;20200;-78
2022/01/11 12:14:06;;;;;;;9.93;6.50;;;;;10.90;103073.00;;;;5011962;28;20287;-78
2022/01/11 12:16:41;;;;;;;8.75;5.55;;;;;10.80;103069.00;;;;5021276;28;20196;-78